Terminal Aerodrome Forecast
Issued by NWS Missoula, MT

Current Version | Previous Version | Text Only | Print | Product List | Glossary On
Versions: 1 2 3 4 5 6 7 8 9 10 11 12 13 14 15 16 17
000
FTUS45 KMSO 201140
TAFGPI
TAF
KGPI 201140Z 2012/2112 21010KT P6SM -RA OVC040
     FM201700 19004KT 5SM -RASN OVC030
     FM202100 08009KT 2SM -SNRA BR OVC015
     FM210400 VRB04KT 5SM -SN BR OVC010=

USA.gov is the U.S. government's official web portal to all federal, state and local government web resources and services.